createdAt,value
2018-11-22T00:02:46.470Z,87.02
2018-11-22T00:05:34.985Z,87.06
2018-11-22T00:08:22.395Z,87.18
2018-11-22T00:11:17.301Z,87.26
2018-11-22T00:14:04.405Z,87.42
2018-11-22T00:16:53.157Z,87.48
2018-11-22T00:19:40.789Z,87.69
2018-11-22T00:22:27.830Z,87.96
2018-11-22T00:25:15.018Z,86.54
2018-11-22T00:28:03.014Z,87.25
2018-11-22T00:30:51.118Z,87.48
2018-11-22T00:33:38.372Z,87.58
2018-11-22T00:36:25.693Z,87.79
2018-11-22T00:39:12.799Z,86.50
2018-11-22T00:41:59.990Z,87.01
2018-11-22T00:47:53.360Z,85.93
2018-11-22T00:50:42.144Z,85.16
2018-11-22T00:53:30.325Z,84.44
2018-11-22T00:56:19.162Z,83.75
2018-11-22T00:59:07.092Z,83.10
2018-11-22T01:02:02.105Z,82.55
2018-11-22T01:04:51.384Z,83.84
2018-11-22T01:07:38.526Z,84.55
2018-11-22T01:10:25.793Z,85.07
2018-11-22T01:13:13.132Z,85.55
2018-11-22T01:25:20.092Z,84.19
2018-11-22T01:28:15.230Z,85.00
2018-11-22T01:31:10.111Z,85.53
2018-11-22T01:33:57.370Z,85.91
2018-11-22T01:36:44.489Z,86.28
2018-11-22T01:39:31.942Z,86.50
2018-11-22T01:42:20.899Z,86.76
2018-11-22T01:45:08.203Z,86.91
2018-11-22T01:51:05.773Z,87.38
2018-11-22T01:53:53.831Z,87.76
2018-11-22T01:56:41.296Z,87.95
2018-11-22T01:59:28.764Z,88.07
2018-11-22T02:02:18.184Z,88.58
2018-11-22T02:08:12.590Z,88.82
2018-11-22T02:14:06.029Z,88.86
2018-11-22T02:16:54.435Z,88.84
2018-11-22T02:25:54.689Z,88.90
2018-11-22T02:31:48.108Z,88.92
2018-11-22T02:37:44.985Z,88.93
2018-11-22T02:40:48.239Z,88.99
2018-11-22T02:43:36.088Z,87.59
2018-11-22T02:46:23.594Z,88.01
2018-11-22T02:49:13.553Z,88.07
2018-11-22T02:52:01.232Z,88.15
2018-11-22T02:58:00.153Z,88.31
2018-11-22T03:00:49.914Z,87.03
2018-11-22T03:03:40.880Z,87.57
2018-11-22T03:09:35.908Z,87.97
2018-11-22T03:12:24.570Z,86.68
2018-11-22T03:15:14.167Z,87.22
2018-11-22T03:21:18.309Z,87.76
2018-11-22T03:27:20.105Z,88.11
2018-11-22T03:30:15.496Z,88.18
2018-11-22T03:33:03.215Z,88.21
2018-11-22T03:35:51.120Z,88.42
2018-11-22T03:51:16.772Z,88.83
2018-11-22T03:54:05.020Z,88.89
2018-11-22T04:03:22.770Z,89.10
2018-11-22T04:09:16.873Z,89.27
2018-11-22T04:12:04.752Z,89.28
2018-11-22T04:14:52.492Z,89.40
2018-11-22T04:17:40.523Z,88.06
2018-11-22T04:20:43.392Z,88.53
2018-11-22T04:23:31.075Z,88.72
2018-11-22T04:26:24.041Z,88.73
2018-11-22T04:35:20.987Z,88.90
2018-11-22T04:38:08.468Z,88.96
2018-11-22T04:41:02.550Z,89.00
2018-11-22T04:43:52.230Z,87.64
2018-11-22T04:56:11.201Z,88.42
2018-11-22T04:59:02.695Z,88.51
2018-11-22T05:01:51.189Z,88.55
2018-11-22T05:04:38.402Z,88.62
2018-11-22T05:07:27.877Z,88.63
2018-11-22T05:10:19.078Z,88.66
2018-11-22T05:13:09.802Z,87.38
2018-11-22T05:19:08.281Z,88.09
2018-11-22T05:25:06.838Z,88.37
2018-11-22T05:27:55.774Z,88.45
2018-11-22T05:36:56.320Z,88.72
2018-11-22T05:39:47.615Z,88.81
2018-11-22T05:42:35.034Z,88.83
2018-11-22T05:45:22.689Z,87.55
2018-11-22T05:48:11.151Z,87.93
2018-11-22T05:50:58.862Z,88.18
2018-11-22T05:53:46.917Z,88.28
2018-11-22T05:56:34.560Z,86.96
2018-11-22T06:02:28.003Z,87.60
2018-11-22T06:05:16.188Z,86.36
2018-11-22T06:08:03.504Z,86.84
2018-11-22T06:10:55.266Z,87.07
2018-11-22T06:13:44.861Z,87.25
2018-11-22T06:16:33.218Z,87.40
2018-11-22T06:19:23.118Z,86.15
2018-11-22T06:22:11.257Z,86.67
2018-11-22T06:25:03.647Z,85.46
2018-11-22T06:27:46.639Z,84.54
2018-11-22T06:30:38.094Z,85.35
2018-11-22T06:33:26.196Z,85.73
2018-11-22T06:36:16.109Z,86.06
2018-11-22T06:39:03.234Z,86.31
2018-11-22T06:44:57.598Z,86.76
2018-11-22T06:47:44.673Z,86.90
2018-11-22T06:50:33.174Z,85.65
2018-11-22T06:53:21.863Z,86.20
2018-11-22T06:56:10.086Z,86.47
2018-11-22T06:59:07.621Z,86.72
2018-11-22T07:02:12.222Z,86.89
2018-11-22T07:04:59.739Z,87.05
2018-11-22T07:26:40.749Z,87.11
2018-11-22T07:29:33.015Z,85.71
2018-11-22T07:35:26.881Z,86.53
2018-11-22T07:38:30.479Z,86.65
2018-11-22T07:41:18.660Z,86.82
2018-11-22T07:50:19.471Z,87.09
2018-11-22T07:53:07.653Z,87.11
2018-11-22T07:55:55.956Z,85.67
2018-11-22T07:58:43.779Z,86.08
2018-11-22T08:04:39.011Z,86.51
2018-11-22T08:07:34.300Z,86.58
2018-11-22T08:10:22.914Z,85.16
2018-11-22T08:13:12.656Z,85.69
2018-11-22T08:15:59.983Z,85.82
2018-11-22T08:18:46.967Z,85.99
2018-11-22T08:21:38.274Z,86.11
2018-11-22T08:24:22.525Z,86.23
2018-11-22T08:27:09.844Z,86.37
2018-11-22T08:30:00.137Z,86.51
2018-11-22T08:32:52.599Z,86.61
2018-11-22T08:35:43.273Z,86.64
2018-11-22T08:38:31.779Z,86.67
2018-11-22T08:41:19.754Z,86.69
2018-11-22T08:44:06.666Z,86.74
2018-11-22T08:50:00.551Z,86.71
2018-11-22T08:52:48.770Z,86.67
2018-11-22T08:55:36.824Z,86.75
2018-11-22T08:58:24.484Z,86.79
2018-11-22T09:01:11.689Z,86.75
2018-11-22T09:03:58.674Z,86.76
2018-11-22T09:06:45.698Z,86.83
2018-11-22T09:09:33.013Z,86.76
2018-11-22T09:15:31.480Z,86.66
2018-11-22T09:18:15.580Z,86.59
2018-11-22T09:21:02.537Z,86.54
2018-11-22T09:23:49.671Z,86.45
2018-11-22T09:26:36.626Z,86.36
2018-11-22T09:29:39.608Z,86.26
2018-11-22T09:32:24.945Z,86.18
2018-11-22T09:35:13.275Z,86.12
2018-11-22T09:41:08.191Z,85.97
2018-11-22T09:43:55.760Z,84.11
2018-11-22T09:46:42.922Z,84.39
2018-11-22T09:52:43.803Z,84.63
2018-11-22T09:55:33.195Z,84.59
2018-11-22T09:58:22.184Z,84.64
2018-11-22T10:01:10.456Z,84.59
2018-11-22T10:03:57.554Z,84.45
2018-11-22T10:06:45.031Z,84.38
2018-11-22T10:09:32.481Z,82.52
2018-11-22T10:12:19.510Z,81.24
2018-11-22T10:15:08.908Z,82.18
2018-11-22T10:17:59.965Z,82.67
2018-11-22T10:20:47.700Z,82.98
2018-11-22T10:23:37.485Z,83.20
2018-11-22T10:26:25.842Z,83.47
2018-11-22T10:29:14.641Z,83.68
2018-11-22T10:32:02.416Z,83.89
2018-11-22T10:34:50.818Z,84.14
2018-11-22T10:37:43.773Z,84.30
2018-11-22T10:40:31.310Z,84.33
2018-11-22T10:43:21.420Z,84.25
2018-11-22T10:46:10.035Z,82.27
2018-11-22T10:48:57.630Z,82.83
2018-11-22T10:51:46.510Z,83.15
2018-11-22T10:54:34.243Z,83.43
2018-11-22T11:03:43.567Z,84.04
2018-11-22T11:06:52.500Z,84.10
2018-11-22T11:09:40.578Z,84.20
2018-11-22T11:12:28.181Z,84.15
2018-11-22T11:15:15.668Z,84.19
2018-11-22T11:18:04.867Z,84.27
2018-11-22T11:20:52.275Z,84.19
2018-11-22T11:23:40.864Z,82.20
2018-11-22T11:26:35.893Z,82.72
2018-11-22T11:29:25.029Z,83.11
2018-11-22T11:32:13.165Z,83.21
2018-11-22T11:35:00.662Z,83.13
2018-11-22T11:37:48.844Z,83.18
2018-11-22T11:40:40.406Z,83.28
2018-11-22T11:46:35.751Z,83.38
2018-11-22T11:49:24.496Z,81.27
2018-11-22T11:52:13.906Z,79.60
2018-11-22T11:55:01.966Z,80.67
2018-11-22T11:57:49.276Z,81.11
2018-11-22T12:00:36.499Z,81.34
2018-11-22T12:03:24.274Z,79.22
2018-11-22T12:06:12.677Z,80.12
2018-11-22T12:09:02.679Z,80.60
2018-11-22T12:11:48.801Z,80.94
2018-11-22T12:14:36.330Z,81.03
2018-11-22T12:17:23.670Z,81.10
2018-11-22T12:23:18.542Z,81.32
2018-11-22T12:26:06.888Z,81.47
2018-11-22T12:28:54.635Z,81.49
2018-11-22T12:31:42.962Z,81.65
2018-11-22T12:34:30.690Z,81.70
2018-11-22T12:37:19.075Z,81.73
2018-11-22T12:43:15.920Z,81.64
2018-11-22T12:46:18.812Z,81.93
2018-11-22T12:49:08.627Z,79.81
2018-11-22T12:51:56.858Z,80.53
2018-11-22T12:54:48.399Z,80.88
2018-11-22T12:57:36.219Z,81.12
2018-11-22T13:00:24.724Z,81.33
2018-11-22T13:03:12.088Z,81.50
2018-11-22T13:09:05.871Z,81.84
2018-11-22T13:11:54.653Z,81.96
2018-11-22T13:14:42.137Z,80.00
2018-11-22T13:17:31.490Z,80.78
2018-11-22T13:29:41.780Z,81.98
2018-11-22T13:32:40.491Z,82.10
2018-11-22T13:41:41.067Z,81.42
2018-11-22T13:44:28.894Z,79.77
2018-11-22T13:53:37.676Z,82.08
2018-11-22T14:02:37.179Z,82.99
2018-11-22T14:05:24.754Z,81.22
2018-11-22T14:08:12.351Z,82.02
2018-11-22T14:11:13.523Z,82.47
2018-11-22T14:13:55.520Z,82.66
2018-11-22T14:16:52.466Z,82.87
2018-11-22T14:19:39.911Z,81.12
2018-11-22T14:22:27.203Z,79.86
2018-11-22T14:25:15.713Z,80.94
2018-11-22T14:28:05.655Z,79.52
2018-11-22T14:34:05.803Z,81.54
2018-11-22T14:36:54.112Z,79.99
2018-11-22T14:42:52.298Z,81.72
2018-11-22T14:45:39.635Z,82.29
2018-11-22T14:48:28.473Z,82.63
2018-11-22T14:51:15.565Z,82.88
2018-11-22T14:57:13.457Z,82.08
2018-11-22T15:00:02.134Z,82.48
2018-11-22T15:02:50.484Z,82.76
2018-11-22T15:05:39.373Z,83.01
2018-11-22T15:08:27.283Z,83.15
2018-11-22T15:11:15.094Z,83.31
2018-11-22T15:14:03.109Z,83.42
2018-11-22T15:16:50.954Z,83.53
2018-11-22T15:19:38.309Z,83.61
2018-11-22T15:22:28.673Z,83.75
2018-11-22T15:25:16.404Z,83.82
2018-11-22T15:28:04.466Z,83.85
2018-11-22T15:30:53.905Z,83.90
2018-11-22T15:33:43.286Z,84.02
2018-11-22T15:36:31.791Z,84.00
2018-11-22T15:39:19.350Z,84.15
2018-11-22T15:42:07.371Z,84.29
2018-11-22T15:44:54.981Z,84.33
2018-11-22T15:47:42.411Z,84.35
2018-11-22T15:50:30.967Z,84.38
2018-11-22T15:53:20.012Z,84.41
2018-11-22T15:59:26.108Z,84.49
2018-11-22T16:02:16.457Z,84.50
2018-11-22T16:05:03.340Z,84.54
2018-11-22T16:07:50.549Z,84.63
2018-11-22T16:10:41.127Z,84.68
2018-11-22T16:13:28.467Z,84.72
2018-11-22T16:16:15.502Z,84.79
2018-11-22T16:19:03.981Z,84.82
2018-11-22T16:21:54.857Z,84.84
2018-11-22T16:27:50.119Z,85.00
2018-11-22T16:30:38.101Z,84.95
2018-11-22T16:33:26.020Z,84.96
2018-11-22T16:39:30.855Z,85.01
2018-11-22T16:42:18.285Z,85.08
2018-11-22T16:45:07.208Z,85.07
2018-11-22T16:47:56.613Z,83.57
2018-11-22T16:50:45.102Z,84.05
2018-11-22T16:53:32.395Z,84.26
2018-11-22T16:59:28.048Z,84.66
2018-11-22T17:02:16.062Z,84.74
2018-11-22T17:08:11.608Z,84.91
2018-11-22T17:10:59.440Z,84.98
2018-11-22T17:13:46.458Z,85.03
2018-11-22T17:16:34.097Z,85.06
2018-11-22T17:19:21.585Z,85.15
2018-11-22T17:22:09.403Z,85.20
2018-11-22T17:24:57.626Z,85.28
2018-11-22T17:27:45.546Z,85.35
2018-11-22T17:30:32.469Z,85.36
2018-11-22T17:33:19.345Z,85.40
2018-11-22T17:36:07.610Z,85.40
2018-11-22T17:42:04.258Z,85.59
2018-11-22T17:44:51.504Z,85.61
2018-11-22T17:47:39.085Z,85.75
2018-11-22T17:50:27.904Z,85.87
2018-11-22T17:53:16.968Z,85.95
2018-11-22T17:56:05.812Z,86.04
2018-11-22T17:58:53.100Z,86.10
2018-11-22T18:01:41.179Z,86.18
2018-11-22T18:04:28.786Z,86.20
2018-11-22T18:07:20.052Z,86.30
2018-11-22T18:10:07.295Z,86.40
2018-11-22T18:12:55.136Z,86.42
2018-11-22T18:15:43.487Z,86.43
2018-11-22T18:21:37.021Z,86.47
2018-11-22T18:24:30.533Z,86.48
2018-11-22T18:27:18.871Z,86.51
2018-11-22T18:30:07.745Z,86.48
2018-11-22T18:32:55.583Z,86.46
2018-11-22T18:35:43.685Z,85.04
2018-11-22T18:38:34.346Z,83.97
2018-11-22T18:41:22.212Z,84.68
2018-11-22T18:44:17.677Z,84.97
2018-11-22T18:50:16.376Z,85.39
2018-11-22T18:56:11.866Z,82.79
2018-11-22T19:05:23.610Z,83.63
2018-11-22T19:08:14.016Z,84.08
2018-11-22T19:11:02.561Z,84.45
2018-11-22T19:13:53.711Z,84.72
2018-11-22T19:16:43.738Z,84.93
2018-11-22T19:19:31.809Z,83.51
2018-11-22T19:22:19.759Z,84.19
2018-11-22T19:25:07.535Z,84.54
2018-11-22T19:27:57.669Z,84.79
2018-11-22T19:30:45.158Z,83.36
2018-11-22T19:33:33.540Z,84.12
2018-11-22T19:36:20.686Z,84.46
2018-11-22T19:39:12.866Z,84.77
2018-11-22T19:42:02.471Z,84.97
2018-11-22T19:44:49.933Z,85.08
2018-11-22T19:47:40.968Z,85.21
2018-11-22T19:50:30.526Z,85.35
2018-11-22T19:53:18.140Z,85.49
2018-11-22T19:56:07.412Z,85.58
2018-11-22T19:58:56.150Z,85.68
2018-11-22T20:01:44.354Z,85.81
2018-11-22T20:04:32.120Z,85.80
2018-11-22T20:07:23.826Z,85.86
2018-11-22T20:13:18.024Z,85.90
2018-11-22T20:16:06.625Z,85.98
2018-11-22T20:25:09.836Z,85.98
2018-11-22T20:27:57.771Z,85.89
2018-11-22T20:30:45.330Z,85.86
2018-11-22T20:33:32.783Z,85.86
2018-11-22T20:36:24.042Z,85.76
2018-11-22T20:39:12.123Z,85.75
2018-11-22T20:41:59.621Z,85.73
2018-11-22T20:44:47.799Z,85.68
2018-11-22T20:47:37.595Z,85.73
2018-11-22T20:50:25.749Z,85.72
2018-11-22T20:53:17.404Z,85.69
2018-11-22T20:56:06.312Z,85.74
2018-11-22T20:58:56.506Z,85.74
2018-11-22T21:01:51.622Z,84.23
2018-11-22T21:07:41.528Z,84.78
2018-11-22T21:10:28.936Z,84.85
2018-11-22T21:13:16.052Z,84.88
2018-11-22T21:16:03.234Z,83.44
2018-11-22T21:18:50.987Z,83.87
2018-11-22T21:21:40.710Z,84.13
2018-11-22T21:24:29.656Z,84.29
2018-11-22T21:27:17.041Z,84.47
2018-11-22T21:30:04.413Z,84.56
2018-11-22T21:32:51.792Z,84.64
2018-11-22T21:35:40.042Z,84.71
2018-11-22T21:38:29.299Z,84.74
2018-11-22T21:41:17.278Z,84.77
2018-11-22T21:44:07.456Z,84.91
2018-11-22T21:46:55.010Z,85.06
2018-11-22T21:49:42.695Z,85.16
2018-11-22T21:52:30.263Z,85.19
2018-11-22T21:55:17.833Z,85.25
2018-11-22T21:58:08.696Z,83.84
2018-11-22T22:04:04.444Z,84.59
2018-11-22T22:06:52.510Z,84.84
2018-11-22T22:09:40.321Z,84.99
2018-11-22T22:12:27.880Z,85.13
2018-11-22T22:15:15.912Z,85.25
2018-11-22T22:18:03.497Z,85.56
2018-11-22T22:20:51.301Z,85.62
2018-11-22T22:23:41.719Z,85.83
2018-11-22T22:26:28.920Z,85.86
2018-11-22T22:29:16.445Z,85.93
2018-11-22T22:32:05.251Z,85.90
2018-11-22T22:34:56.163Z,85.92
2018-11-22T22:37:44.081Z,85.95
2018-11-22T22:40:39.325Z,85.98
2018-11-22T22:43:28.487Z,86.06
2018-11-22T22:46:19.874Z,86.13
2018-11-22T22:49:07.728Z,86.12
2018-11-22T22:51:56.342Z,86.12
2018-11-22T22:54:45.778Z,86.12
2018-11-22T22:57:34.443Z,86.31
2018-11-22T23:00:22.080Z,86.46
2018-11-22T23:03:09.520Z,86.49
2018-11-22T23:06:03.651Z,86.77
2018-11-22T23:08:50.729Z,87.03
2018-11-22T23:11:37.768Z,85.65
2018-11-22T23:14:25.995Z,86.24
2018-11-22T23:17:13.403Z,86.57
2018-11-22T23:20:01.090Z,86.88
2018-11-22T23:22:59.159Z,87.03
2018-11-22T23:25:46.920Z,87.27
2018-11-22T23:28:34.392Z,87.38
2018-11-22T23:31:32.900Z,85.99
2018-11-22T23:34:19.867Z,86.53
2018-11-22T23:37:07.744Z,86.75
2018-11-22T23:39:55.556Z,86.90
2018-11-22T23:42:45.910Z,85.51
2018-11-22T23:45:34.350Z,86.16
2018-11-22T23:48:22.560Z,86.50
2018-11-22T23:51:11.023Z,86.69
2018-11-22T23:54:00.015Z,86.87
2018-11-22T23:56:50.583Z,86.91
2018-11-22T23:59:43.130Z,86.98
